Terminal Aerodrome Forecast
Issued by NWS

Home | Current Version | Previous Version | Text Only | Print | Product List | Glossary On
Versions: 1 2 3 4 5 6 7 8 9 10 11 12 13 14
697
FTUS46 KSGX 200520
TAFCRQ
TAF
KCRQ 200520Z 2006/2106 17004KT P6SM BKN013 OVC021
     FM201400 26008KT P6SM VCSH BKN019
     FM201900 28011KT P6SM BKN025
     FM210200 VRB04KT P6SM BKN023=

USA.gov is the U.S. government's official web portal to all federal, state and local government web resources and services.